Time;durP1;ratioP1;P1;durP2;ratioP2;P2;SDS_P1;SDS_P2;PMS_P1;PMS_P2;Temp;Humidity;BMP_temperature;BMP_pressure;BME280_temperature;BME280_humidity;BME280_pressure;Samples;Min_cycle;Max_cycle;Signal;HPM_P1;HPM_P2
2022/03/10 00:01:10;;;;;;;16.00;10.52;;;3.40;94.00;;;;;;5052130;28;20049;-71
2022/03/10 00:03:35;;;;;;;16.83;10.57;;;3.40;93.80;;;;;;5050973;28;20037;-72
2022/03/10 00:06:01;;;;;;;15.55;9.73;;;3.40;94.10;;;;;;5034324;28;20116;-72
2022/03/10 00:08:26;;;;;;;16.65;9.75;;;3.40;93.60;;;;;;5066971;28;20401;-72
2022/03/10 00:10:52;;;;;;;17.35;10.32;;;3.40;93.50;;;;;;5051686;28;20037;-71
2022/03/10 00:13:17;;;;;;;17.70;10.27;;;3.40;93.70;;;;;;5050078;28;20049;-72
2022/03/10 00:15:43;;;;;;;17.95;10.52;;;3.40;94.10;;;;;;5051298;28;20552;-72
2022/03/10 00:18:09;;;;;;;17.05;10.68;;;3.40;93.60;;;;;;5052178;28;20136;-72
2022/03/10 00:20:34;;;;;;;16.90;10.43;;;3.40;93.70;;;;;;5051140;28;20485;-72
2022/03/10 00:23:00;;;;;;;16.75;9.95;;;3.30;94.10;;;;;;5051436;28;20036;-72
2022/03/10 00:25:25;;;;;;;16.38;11.05;;;3.30;94.10;;;;;;5050613;28;20048;-72
2022/03/10 00:27:51;;;;;;;17.73;10.63;;;3.20;94.40;;;;;;5034800;28;20041;-71
2022/03/10 00:30:17;;;;;;;16.73;10.77;;;3.20;94.20;;;;;;5051081;28;20041;-72
2022/03/10 00:32:48;;;;;;;17.50;10.10;;;3.20;94.30;;;;;;5052097;28;20045;-71
2022/03/10 00:35:32;;;;;;;18.80;10.68;;;3.20;94.10;;;;;;5051233;28;20033;-71
2022/03/10 00:37:58;;;;;;;18.05;11.20;;;3.10;94.30;;;;;;5051679;28;20099;-72
2022/03/10 00:40:24;;;;;;;15.38;10.82;;;3.10;95.40;;;;;;5051064;28;20052;-72
2022/03/10 00:42:50;;;;;;;17.88;10.50;;;3.10;95.10;;;;;;5052047;28;20055;-71
2022/03/10 00:45:19;;;;;;;17.58;10.65;;;3.00;95.60;;;;;;5050937;28;20485;-71
2022/03/10 00:47:45;;;;;;;19.42;10.73;;;2.90;95.00;;;;;;5051778;28;20119;-71
2022/03/10 00:50:11;;;;;;;16.02;10.07;;;2.90;94.80;;;;;;5049704;28;20047;-71
2022/03/10 00:52:43;;;;;;;16.83;10.65;;;2.90;95.20;;;;;;5051662;28;20037;-71
2022/03/10 00:55:10;;;;;;;16.17;9.98;;;2.90;95.70;;;;;;5030250;28;20091;-71
2022/03/10 00:57:37;;;;;;;15.73;10.57;;;2.90;95.10;;;;;;5031947;28;20429;-72
2022/03/10 01:00:05;;;;;;;15.55;9.25;;;2.90;94.90;;;;;;5057383;28;20037;-71
2022/03/10 01:02:31;;;;;;;15.75;9.80;;;2.90;95.00;;;;;;5051771;28;20119;-71
2022/03/10 01:04:57;;;;;;;16.65;9.90;;;2.90;94.70;;;;;;5067500;28;20048;-71
2022/03/10 01:07:23;;;;;;;15.98;9.57;;;2.90;94.70;;;;;;5051619;28;20047;-72
2022/03/10 01:09:48;;;;;;;16.35;10.98;;;2.90;94.70;;;;;;5051039;28;20037;-72
2022/03/10 01:12:14;;;;;;;17.77;11.43;;;2.90;95.20;;;;;;5051416;28;20051;-72
2022/03/10 01:14:39;;;;;;;16.30;10.82;;;2.80;95.90;;;;;;5047445;28;20548;-72
2022/03/10 01:17:05;;;;;;;16.42;10.18;;;2.70;96.30;;;;;;5049912;28;20036;-71
2022/03/10 01:19:30;;;;;;;16.73;9.93;;;2.70;96.10;;;;;;5051114;28;20063;-72
2022/03/10 01:21:56;;;;;;;15.90;10.70;;;2.70;96.00;;;;;;5051373;28;20116;-72
2022/03/10 01:24:23;;;;;;;15.38;9.73;;;2.70;96.50;;;;;;5035851;28;20124;-71
2022/03/10 01:26:48;;;;;;;15.00;10.07;;;2.60;96.40;;;;;;5034812;28;20041;-72
2022/03/10 01:29:14;;;;;;;15.48;10.60;;;2.60;96.30;;;;;;5036228;28;20048;-72
2022/03/10 01:31:40;;;;;;;15.82;10.25;;;2.60;96.30;;;;;;5054144;28;20041;-71
2022/03/10 01:34:05;;;;;;;15.25;10.00;;;2.60;96.20;;;;;;5071245;28;20041;-72
2022/03/10 01:36:31;;;;;;;17.23;10.57;;;2.60;96.10;;;;;;5037619;28;20049;-71
2022/03/10 01:38:56;;;;;;;15.40;10.70;;;2.60;96.20;;;;;;5065037;28;20037;-72
2022/03/10 01:41:22;;;;;;;18.23;11.02;;;2.60;96.20;;;;;;5054311;28;20045;-72
2022/03/10 01:44:14;;;;;;;20.10;11.68;;;2.50;96.90;;;;;;5054131;28;20037;-72
2022/03/10 01:46:40;;;;;;;;;;;2.50;97.00;;;;;;5070570;28;20406;-72
2022/03/10 01:49:06;;;;;;;15.95;9.40;;;2.50;97.10;;;;;;5053941;28;19924;-72
2022/03/10 01:51:34;;;;;;;16.98;10.50;;;2.50;96.40;;;;;;5071337;28;20127;-71
2022/03/10 01:54:01;;;;;;;16.23;10.85;;;2.60;96.40;;;;;;5053272;28;20040;-71
2022/03/10 01:56:27;;;;;;;17.35;10.85;;;2.60;96.20;;;;;;5052193;28;20064;-72
2022/03/10 01:58:54;;;;;;;16.35;10.48;;;2.60;96.20;;;;;;5054056;28;20072;-72
2022/03/10 02:01:20;;;;;;;15.02;10.52;;;2.60;96.20;;;;;;5054553;28;20055;-72
2022/03/10 02:03:46;;;;;;;17.55;11.10;;;2.60;96.50;;;;;;5037296;28;20081;-72
2022/03/10 02:06:13;;;;;;;17.67;10.90;;;2.60;96.30;;;;;;5054072;28;20044;-72
2022/03/10 02:11:23;;;;;;;18.98;11.30;;;2.60;96.10;;;;;;5053906;28;20096;-72
2022/03/10 02:13:48;;;;;;;16.92;11.02;;;2.50;96.50;;;;;;5037705;28;20072;-72
2022/03/10 02:19:00;;;;;;;20.58;10.63;;;2.50;96.90;;;;;;5051144;28;20049;-72
2022/03/10 02:21:26;;;;;;;17.77;11.90;;;2.40;96.60;;;;;;5054141;28;20052;-72
2022/03/10 02:23:52;;;;;;;16.63;10.52;;;2.40;96.90;;;;;;5051250;28;20041;-72
2022/03/10 02:26:19;;;;;;;17.38;10.93;;;2.40;96.70;;;;;;5054394;28;20400;-72
2022/03/10 02:28:44;;;;;;;17.60;11.35;;;2.40;96.70;;;;;;5053224;28;20028;-72
2022/03/10 02:31:11;;;;;;;18.67;10.88;;;2.40;96.70;;;;;;5054313;28;20032;-72
2022/03/10 02:33:37;;;;;;;16.75;10.10;;;2.40;97.10;;;;;;5053412;28;20409;-72
2022/03/10 02:36:04;;;;;;;17.63;11.77;;;2.30;97.30;;;;;;5054227;28;20474;-72
2022/03/10 02:38:30;;;;;;;17.58;11.00;;;2.30;97.20;;;;;;5053186;28;20143;-72
2022/03/10 02:40:56;;;;;;;18.98;11.65;;;2.40;97.80;;;;;;5053520;28;20123;-72
2022/03/10 02:43:22;;;;;;;19.10;11.65;;;2.30;98.80;;;;;;5052882;28;20467;-71
2022/03/10 02:45:48;;;;;;;16.63;10.75;;;2.20;97.70;;;;;;5052852;28;20033;-71
2022/03/10 02:48:15;;;;;;;18.10;11.40;;;2.20;97.50;;;;;;5047938;28;20037;-72
2022/03/10 02:50:42;;;;;;;17.10;11.85;;;2.20;97.50;;;;;;5053656;28;20051;-72
2022/03/10 02:53:08;;;;;;;15.88;11.50;;;2.20;97.60;;;;;;5053101;28;20447;-71
2022/03/10 02:55:33;;;;;;;16.70;11.35;;;2.20;97.80;;;;;;5037043;28;20094;-72
2022/03/10 02:57:59;;;;;;;18.92;11.75;;;2.20;97.60;;;;;;5052973;28;20036;-72
2022/03/10 03:00:24;;;;;;;16.85;11.18;;;2.30;97.60;;;;;;5053365;28;20041;-72
2022/03/10 03:02:50;;;;;;;17.58;10.52;;;2.20;97.20;;;;;;5052344;28;20037;-72
2022/03/10 03:05:16;;;;;;;18.05;11.18;;;2.30;97.20;;;;;;5053644;28;20190;-72
2022/03/10 03:07:47;;;;;;;19.42;11.73;;;2.20;97.80;;;;;;5053308;28;20045;-71
2022/03/10 03:10:14;;;;;;;17.87;11.00;;;2.20;97.40;;;;;;5053365;28;20072;-71
2022/03/10 03:12:47;;;;;;;19.13;11.45;;;2.10;97.20;;;;;;5050888;28;20304;-71
2022/03/10 03:15:13;;;;;;;17.00;10.85;;;2.10;97.30;;;;;;5034437;28;20037;-71
2022/03/10 03:17:38;;;;;;;19.20;11.07;;;2.20;97.40;;;;;;5052586;28;20041;-72
2022/03/10 03:20:04;;;;;;;21.95;12.23;;;2.20;97.20;;;;;;5051537;28;20060;-72
2022/03/10 03:22:31;;;;;;;17.77;10.88;;;2.20;97.10;;;;;;5053237;28;20041;-71
2022/03/10 03:24:56;;;;;;;19.65;11.65;;;2.30;97.00;;;;;;5052462;28;20611;-72
2022/03/10 03:27:22;;;;;;;17.70;10.20;;;2.40;96.80;;;;;;5052938;28;20119;-71
2022/03/10 03:29:48;;;;;;;18.08;11.85;;;2.50;96.50;;;;;;5036167;28;20398;-71
2022/03/10 03:32:13;;;;;;;17.50;11.68;;;2.50;96.30;;;;;;5036371;28;20041;-71
2022/03/10 03:34:39;;;;;;;18.83;12.32;;;2.50;96.30;;;;;;5052708;28;20063;-71
2022/03/10 03:37:05;;;;;;;17.05;11.43;;;2.40;96.80;;;;;;5052841;28;20049;-71
2022/03/10 03:39:31;;;;;;;16.60;10.30;;;2.40;96.70;;;;;;5049998;28;20047;-71
2022/03/10 03:41:57;;;;;;;18.02;11.52;;;2.40;96.80;;;;;;5052620;28;20086;-71
2022/03/10 03:44:22;;;;;;;18.05;11.82;;;2.40;96.60;;;;;;5052000;28;20036;-71
2022/03/10 03:46:48;;;;;;;17.98;11.25;;;2.40;96.60;;;;;;5049930;28;20139;-72
2022/03/10 03:49:14;;;;;;;14.68;9.88;;;2.40;96.60;;;;;;5049206;28;20053;-71
2022/03/10 03:51:39;;;;;;;18.05;11.75;;;2.40;96.60;;;;;;5035111;28;20036;-71
2022/03/10 03:54:07;;;;;;;17.85;11.25;;;2.40;96.60;;;;;;5052061;28;20036;-71
2022/03/10 03:56:34;;;;;;;18.52;11.15;;;2.30;96.80;;;;;;5051776;28;20052;-71
2022/03/10 03:58:59;;;;;;;17.92;11.57;;;2.30;96.70;;;;;;5052402;28;20033;-71
2022/03/10 04:01:25;;;;;;;18.02;11.38;;;2.20;96.90;;;;;;5051736;28;20052;-72
2022/03/10 04:03:51;;;;;;;15.55;10.43;;;2.20;96.80;;;;;;5035911;28;20170;-71
2022/03/10 04:06:17;;;;;;;20.30;11.57;;;2.20;96.80;;;;;;5040038;28;20048;-72
2022/03/10 04:08:42;;;;;;;17.38;11.32;;;2.10;96.90;;;;;;5032627;28;20432;-72
2022/03/10 04:11:08;;;;;;;18.23;11.15;;;2.20;97.00;;;;;;5045475;28;20124;-71
2022/03/10 04:13:34;;;;;;;18.40;10.50;;;2.10;96.90;;;;;;5052328;28;20154;-71
2022/03/10 04:15:59;;;;;;;16.63;10.52;;;2.10;97.00;;;;;;5050248;28;20048;-71
2022/03/10 04:18:25;;;;;;;18.05;10.75;;;2.00;97.20;;;;;;5052372;28;20056;-71
2022/03/10 04:20:50;;;;;;;17.55;10.35;;;2.00;97.50;;;;;;5037410;28;20037;-71
2022/03/10 04:23:16;;;;;;;17.40;10.68;;;1.90;97.90;;;;;;5031885;28;20037;-71
2022/03/10 04:25:42;;;;;;;15.52;10.20;;;1.90;98.10;;;;;;5045078;28;20041;-71
2022/03/10 04:28:09;;;;;;;15.18;9.60;;;1.90;97.90;;;;;;5051942;28;20029;-71
2022/03/10 04:30:35;;;;;;;17.10;10.27;;;1.90;97.60;;;;;;5032598;28;20041;-71
2022/03/10 04:33:01;;;;;;;14.60;9.48;;;1.90;97.50;;;;;;5051835;28;20052;-71
2022/03/10 04:35:28;;;;;;;18.17;11.20;;;1.90;97.60;;;;;;5051660;28;20041;-72
2022/03/10 04:37:55;;;;;;;17.15;10.50;;;1.90;97.50;;;;;;5051629;28;20052;-71
2022/03/10 04:40:21;;;;;;;17.70;10.90;;;1.90;97.60;;;;;;5051712;28;20049;-71
2022/03/10 04:42:48;;;;;;;15.65;10.35;;;1.80;97.70;;;;;;5052118;28;20041;-71
2022/03/10 04:45:14;;;;;;;15.73;9.52;;;1.80;98.10;;;;;;5029708;28;20048;-71
2022/03/10 04:47:41;;;;;;;17.27;10.80;;;1.80;97.90;;;;;;5027865;28;20075;-72
2022/03/10 04:50:09;;;;;;;17.70;10.63;;;1.80;98.00;;;;;;5051509;28;20049;-71
2022/03/10 04:52:35;;;;;;;16.08;10.77;;;1.70;98.10;;;;;;5051910;28;20079;-71
2022/03/10 04:55:01;;;;;;;15.93;9.80;;;1.80;97.70;;;;;;5048178;28;20069;-71
2022/03/10 04:57:27;;;;;;;16.73;9.65;;;1.70;97.70;;;;;;5041668;28;20047;-71
2022/03/10 04:59:53;;;;;;;15.43;9.60;;;1.70;97.70;;;;;;5068296;28;20498;-71
2022/03/10 05:02:18;;;;;;;16.13;10.38;;;1.70;98.10;;;;;;5034683;28;20033;-71
2022/03/10 05:04:44;;;;;;;14.15;10.20;;;1.70;98.00;;;;;;5055530;28;20033;-71
2022/03/10 05:07:10;;;;;;;17.25;9.70;;;1.70;98.10;;;;;;5047758;28;20091;-71
2022/03/10 05:09:36;;;;;;;17.33;10.43;;;1.70;98.10;;;;;;5030417;28;20036;-71
2022/03/10 05:12:01;;;;;;;14.98;10.23;;;1.70;98.10;;;;;;5029478;28;20123;-71
2022/03/10 05:14:27;;;;;;;15.85;10.35;;;1.70;98.00;;;;;;5054677;28;20175;-71
2022/03/10 05:16:53;;;;;;;18.15;9.40;;;1.70;98.00;;;;;;5048645;28;20074;-71
2022/03/10 05:19:18;;;;;;;16.95;10.50;;;1.70;98.40;;;;;;5058618;28;20037;-71
2022/03/10 05:21:44;;;;;;;17.10;9.93;;;1.70;98.10;;;;;;5025709;28;20124;-71
2022/03/10 05:24:10;;;;;;;16.58;10.15;;;1.70;98.00;;;;;;5025728;28;20029;-71
2022/03/10 05:26:37;;;;;;;16.95;10.68;;;1.60;98.20;;;;;;5045207;28;20086;-71
2022/03/10 05:29:03;;;;;;;16.67;10.85;;;1.60;98.50;;;;;;5027694;28;20370;-71
2022/03/10 05:31:29;;;;;;;15.70;9.80;;;1.60;98.20;;;;;;5048375;28;20052;-71
2022/03/10 05:33:54;;;;;;;15.30;10.25;;;1.60;98.30;;;;;;5030955;28;20063;-71
2022/03/10 05:36:20;;;;;;;19.38;10.32;;;1.60;98.70;;;;;;5051042;28;20513;-71
2022/03/10 05:38:46;;;;;;;18.17;10.25;;;1.60;98.20;;;;;;5047399;28;20057;-71
2022/03/10 05:41:11;;;;;;;15.73;9.82;;;1.70;97.90;;;;;;5051528;28;20482;-71
2022/03/10 05:43:37;;;;;;;16.80;10.30;;;1.60;97.90;;;;;;5055610;28;20052;-71
2022/03/10 05:46:03;;;;;;;16.30;9.82;;;1.60;97.90;;;;;;5037516;28;20076;-71
2022/03/10 05:48:29;;;;;;;17.08;9.90;;;1.60;98.20;;;;;;5015637;28;21266;-71
2022/03/10 05:50:54;;;;;;;16.15;10.52;;;1.60;97.90;;;;;;5055447;28;20040;-71
2022/03/10 05:53:20;;;;;;;15.18;10.15;;;1.60;98.10;;;;;;5038783;28;20041;-71
2022/03/10 05:55:45;;;;;;;16.75;10.23;;;1.60;98.00;;;;;;5054043;28;20493;-71
2022/03/10 05:58:11;;;;;;;16.33;9.43;;;1.60;98.00;;;;;;5038284;28;20493;-71
2022/03/10 06:00:37;;;;;;;16.35;10.23;;;1.60;98.00;;;;;;5037110;28;20654;-71
2022/03/10 06:03:02;;;;;;;16.13;9.65;;;1.60;98.20;;;;;;5038725;28;20115;-71
2022/03/10 06:05:28;;;;;;;16.25;10.45;;;1.60;98.50;;;;;;5040744;28;20052;-71
2022/03/10 06:07:54;;;;;;;15.82;10.30;;;1.50;98.40;;;;;;5038867;28;20056;-71
2022/03/10 06:10:19;;;;;;;17.65;10.13;;;1.60;98.30;;;;;;5052901;28;20037;-71
2022/03/10 06:12:45;;;;;;;17.67;10.57;;;1.60;99.10;;;;;;5045412;28;20055;-71
2022/03/10 06:15:11;;;;;;;16.92;10.50;;;1.60;98.70;;;;;;5037062;28;20064;-71
2022/03/10 06:17:37;;;;;;;17.55;10.05;;;1.60;98.80;;;;;;5038471;28;20060;-71
2022/03/10 06:20:06;;;;;;;16.38;10.48;;;1.60;98.70;;;;;;5027594;28;20041;-71
2022/03/10 06:22:31;;;;;;;16.95;9.98;;;1.50;98.70;;;;;;5068733;28;20037;-71
2022/03/10 06:24:58;;;;;;;17.23;10.70;;;1.60;98.60;;;;;;5036879;28;20536;-71
2022/03/10 06:27:24;;;;;;;16.52;9.95;;;1.60;98.60;;;;;;5051432;28;20037;-71
2022/03/10 06:29:51;;;;;;;17.70;10.15;;;1.60;98.70;;;;;;5043746;28;20056;-71
2022/03/10 06:32:18;;;;;;;19.00;10.98;;;1.60;98.70;;;;;;5037785;28;20144;-71
2022/03/10 06:34:44;;;;;;;15.77;9.88;;;1.60;98.70;;;;;;5059901;28;20033;-71
2022/03/10 06:37:10;;;;;;;17.00;10.15;;;1.60;98.60;;;;;;5045795;28;20178;-71
2022/03/10 06:39:36;;;;;;;14.77;9.52;;;1.70;98.80;;;;;;5050586;28;20060;-71
2022/03/10 06:42:02;;;;;;;17.90;10.95;;;1.80;98.70;;;;;;5057935;28;20044;-71
2022/03/10 06:44:29;;;;;;;18.67;10.40;;;1.90;98.20;;;;;;5037506;28;20049;-71
2022/03/10 06:46:55;;;;;;;18.35;10.77;;;1.90;98.70;;;;;;5039250;28;20545;-71
2022/03/10 06:49:21;;;;;;;16.02;10.20;;;1.90;98.80;;;;;;5037378;28;20056;-71
2022/03/10 06:51:48;;;;;;;19.70;10.38;;;1.80;99.10;;;;;;5053653;28;20162;-71
2022/03/10 06:54:14;;;;;;;16.30;10.27;;;1.90;99.10;;;;;;5055369;28;20128;-71
2022/03/10 06:56:40;;;;;;;17.33;10.73;;;1.90;98.70;;;;;;5038315;28;20033;-71
2022/03/10 06:59:06;;;;;;;18.02;11.60;;;2.10;98.70;;;;;;5036692;28;20126;-71
2022/03/10 07:01:31;;;;;;;16.13;10.63;;;2.20;98.20;;;;;;5040450;28;20075;-71
2022/03/10 07:03:57;;;;;;;17.02;10.73;;;2.30;97.80;;;;;;5037021;28;22084;-71
2022/03/10 07:06:27;;;;;;;18.20;10.02;;;2.30;98.60;;;;;;5038922;28;20079;-71
2022/03/10 07:08:52;;;;;;;17.45;10.32;;;2.30;98.10;;;;;;5037755;28;20067;-71
2022/03/10 07:11:18;;;;;;;17.52;10.60;;;2.30;98.10;;;;;;5054342;28;20509;-71
2022/03/10 07:13:47;;;;;;;16.60;10.70;;;2.30;98.20;;;;;;5045018;28;20406;-71
2022/03/10 07:16:13;;;;;;;18.45;10.80;;;2.50;98.00;;;;;;5035804;28;20037;-71
2022/03/10 07:18:39;;;;;;;18.30;10.63;;;2.70;97.70;;;;;;5061725;28;20043;-72
2022/03/10 07:21:05;;;;;;;18.70;10.23;;;2.80;97.90;;;;;;5041772;28;20136;-72
2022/03/10 07:23:31;;;;;;;18.77;10.18;;;2.90;97.60;;;;;;5036680;28;20224;-72
2022/03/10 07:25:57;;;;;;;17.70;11.30;;;2.90;97.40;;;;;;5051773;28;20095;-72
2022/03/10 07:28:23;;;;;;;18.85;11.18;;;2.90;98.50;;;;;;5020477;28;20036;-72
2022/03/10 07:30:48;;;;;;;17.25;10.38;;;3.00;97.60;;;;;;5021262;28;20405;-72
2022/03/10 07:33:14;;;;;;;16.48;9.15;;;3.00;98.00;;;;;;5049618;28;20120;-72
2022/03/10 07:35:40;;;;;;;20.33;10.70;;;3.20;97.70;;;;;;5051452;28;20455;-72
2022/03/10 07:38:06;;;;;;;16.90;10.18;;;3.40;97.30;;;;;;5051120;28;20092;-72
2022/03/10 07:40:31;;;;;;;18.10;10.38;;;3.50;97.00;;;;;;5050329;28;20509;-72
2022/03/10 07:42:57;;;;;;;14.30;9.38;;;3.60;96.80;;;;;;5009826;28;20485;-72
2022/03/10 07:45:23;;;;;;;16.15;10.48;;;3.70;96.80;;;;;;5051986;28;20494;-72
2022/03/10 07:47:48;;;;;;;17.63;11.38;;;3.80;96.60;;;;;;5046606;28;20068;-72
2022/03/10 07:50:14;;;;;;;16.50;10.30;;;3.90;96.80;;;;;;5051527;28;20044;-72
2022/03/10 07:52:40;;;;;;;17.27;11.30;;;4.00;96.70;;;;;;5027258;28;20807;-72
2022/03/10 07:55:08;;;;;;;18.75;11.02;;;4.10;96.80;;;;;;5037029;28;21417;-71
2022/03/10 07:57:34;;;;;;;18.27;11.52;;;4.20;97.00;;;;;;5052182;28;20048;-72
2022/03/10 08:00:00;;;;;;;16.15;10.93;;;4.30;96.90;;;;;;5035567;28;20048;-72
2022/03/10 08:02:25;;;;;;;18.05;11.02;;;4.50;96.80;;;;;;5035380;28;20033;-72
2022/03/10 08:04:51;;;;;;;18.55;10.20;;;4.50;96.70;;;;;;5040970;28;20087;-72
2022/03/10 08:07:16;;;;;;;17.58;11.48;;;4.60;97.00;;;;;;5038327;28;20051;-72
2022/03/10 08:09:42;;;;;;;19.83;11.73;;;4.70;97.00;;;;;;5043824;28;20041;-72
2022/03/10 08:12:08;;;;;;;15.27;10.10;;;4.90;97.00;;;;;;5008993;28;20052;-72
2022/03/10 08:14:34;;;;;;;19.42;11.70;;;5.00;96.40;;;;;;5020811;28;20032;-72
2022/03/10 08:16:59;;;;;;;16.55;10.75;;;5.20;96.10;;;;;;5044285;28;20105;-71
2022/03/10 08:19:25;;;;;;;16.27;10.32;;;5.20;96.20;;;;;;5041417;28;20394;-72
2022/03/10 08:21:51;;;;;;;19.90;10.80;;;5.40;95.90;;;;;;5036408;28;20442;-72
2022/03/10 08:24:17;;;;;;;19.75;11.60;;;5.40;95.40;;;;;;5038301;28;20051;-72
2022/03/10 08:26:43;;;;;;;18.02;11.95;;;5.60;95.20;;;;;;5039249;28;20032;-72
2022/03/10 08:29:09;;;;;;;18.20;11.20;;;5.70;94.80;;;;;;5035832;28;20132;-71
2022/03/10 08:31:34;;;;;;;19.30;11.65;;;5.70;94.80;;;;;;5035790;28;20040;-72
2022/03/10 08:34:00;;;;;;;16.85;10.48;;;5.80;94.30;;;;;;5035758;28;20040;-72
2022/03/10 08:36:26;;;;;;;16.10;10.65;;;5.90;93.70;;;;;;5051248;28;20056;-76
2022/03/10 08:38:51;;;;;;;19.23;11.35;;;6.00;93.40;;;;;;5008402;28;20848;-72
2022/03/10 08:41:17;;;;;;;16.83;10.90;;;6.00;93.60;;;;;;5019490;28;20135;-72
2022/03/10 08:43:43;;;;;;;15.75;10.27;;;6.10;93.80;;;;;;5048628;28;20029;-72
2022/03/10 08:46:09;;;;;;;17.77;10.13;;;6.20;93.30;;;;;;5049485;28;20033;-72
2022/03/10 08:48:35;;;;;;;17.15;11.05;;;6.40;92.60;;;;;;5051368;28;20512;-72
2022/03/10 08:51:04;;;;;;;16.95;10.60;;;6.50;91.90;;;;;;5038006;28;20080;-72
2022/03/10 08:53:31;;;;;;;16.48;10.30;;;6.60;91.70;;;;;;5049045;28;20080;-72
2022/03/10 08:55:56;;;;;;;17.05;10.90;;;6.80;91.40;;;;;;5033473;28;20048;-72
2022/03/10 08:58:24;;;;;;;19.45;10.30;;;6.90;90.90;;;;;;5051188;28;20547;-72
2022/03/10 09:00:50;;;;;;;19.30;10.65;;;7.10;90.50;;;;;;5050228;28;20055;-72
2022/03/10 09:03:15;;;;;;;15.15;10.43;;;7.20;90.30;;;;;;5051015;28;20033;-72
2022/03/10 09:05:42;;;;;;;15.82;10.77;;;7.40;90.10;;;;;;5050863;28;20071;-72
2022/03/10 09:08:08;;;;;;;17.23;10.30;;;7.50;89.80;;;;;;5050496;28;20490;-72
2022/03/10 09:10:33;;;;;;;17.20;10.75;;;7.60;89.80;;;;;;5041417;28;20040;-72
2022/03/10 09:12:59;;;;;;;15.23;10.15;;;7.80;89.00;;;;;;5064778;28;20033;-72
2022/03/10 09:15:26;;;;;;;16.25;10.20;;;7.90;83.20;;;;;;5051229;28;20044;-72
2022/03/10 09:17:53;;;;;;;16.40;10.20;;;8.10;85.20;;;;;;5046143;28;20087;-72
2022/03/10 09:20:18;;;;;;;16.95;9.43;;;8.30;82.30;;;;;;5036087;28;20440;-72
2022/03/10 09:22:45;;;;;;;16.02;10.57;;;8.50;79.60;;;;;;5034757;28;20033;-72
2022/03/10 09:25:12;;;;;;;14.85;9.15;;;8.60;79.30;;;;;;5034202;28;20055;-72
2022/03/10 09:27:38;;;;;;;17.75;10.02;;;8.70;79.50;;;;;;5027727;28;20029;-72
2022/03/10 09:30:07;;;;;;;16.63;10.50;;;8.80;75.70;;;;;;5051245;28;20107;-73
2022/03/10 09:32:45;;;;;;;16.15;10.27;;;9.00;77.50;;;;;;5033307;28;20041;-72
2022/03/10 09:35:14;;;;;;;15.10;10.57;;;9.10;77.60;;;;;;5050997;28;20045;-72
2022/03/10 09:37:40;;;;;;;17.42;10.93;;;9.20;76.70;;;;;;5050056;28;20482;-72
2022/03/10 09:40:08;;;;;;;17.05;10.80;;;9.30;77.10;;;;;;5036461;28;20037;-72
2022/03/10 09:42:34;;;;;;;17.55;11.18;;;9.40;76.30;;;;;;5049742;28;20032;-72
2022/03/10 09:45:02;;;;;;;17.13;11.23;;;9.50;78.00;;;;;;5050848;28;20090;-73
2022/03/10 09:47:28;;;;;;;16.05;10.68;;;9.60;76.80;;;;;;5041489;28;20040;-72
2022/03/10 09:49:54;;;;;;;17.42;11.27;;;9.70;76.90;;;;;;5049880;28;20401;-73
2022/03/10 09:52:21;;;;;;;16.15;11.15;;;9.90;73.70;;;;;;5052660;28;20048;-72
2022/03/10 09:54:47;;;;;;;15.55;10.55;;;10.00;73.10;;;;;;5037584;28;20033;-72
2022/03/10 09:57:15;;;;;;;17.33;10.85;;;10.00;74.80;;;;;;5035828;28;20422;-73
2022/03/10 09:59:48;;;;;;;16.90;11.20;;;10.20;74.90;;;;;;5053251;28;20044;-73
2022/03/10 10:02:14;;;;;;;17.17;11.63;;;10.30;73.90;;;;;;5053633;28;20051;-72
2022/03/10 10:04:41;;;;;;;16.23;10.90;;;10.30;72.10;;;;;;5036448;28;20029;-72
2022/03/10 10:07:08;;;;;;;18.95;11.27;;;10.40;73.50;;;;;;5035586;28;20033;-72
2022/03/10 10:09:44;;;;;;;17.83;9.68;;;10.50;72.10;;;;;;5052225;28;20037;-73
2022/03/10 10:12:11;;;;;;;15.40;10.55;;;10.60;71.20;;;;;;5017635;28;20038;-72
2022/03/10 10:14:39;;;;;;;15.50;11.50;;;10.70;67.90;;;;;;5035965;28;20033;-73
2022/03/10 10:17:05;;;;;;;17.58;11.63;;;10.80;70.10;;;;;;5053708;28;20048;-73
2022/03/10 10:19:35;;;;;;;16.08;11.20;;;10.80;70.60;;;;;;5052239;28;20025;-72
2022/03/10 10:22:08;;;;;;;20.80;11.73;;;11.00;68.00;;;;;;5052533;28;20041;-72
2022/03/10 10:24:35;;;;;;;14.80;10.40;;;11.00;65.70;;;;;;5035210;28;20087;-73
2022/03/10 10:27:15;;;;;;;16.90;10.85;;;11.20;61.00;;;;;;5051936;28;20120;-72
2022/03/10 10:29:45;;;;;;;18.42;11.73;;;11.30;62.60;;;;;;5053363;28;20454;-72
2022/03/10 10:32:10;;;;;;;17.48;11.85;;;11.30;65.10;;;;;;5053053;28;20033;-72
2022/03/10 10:34:36;;;;;;;17.98;11.68;;;11.40;64.70;;;;;;5053544;28;20098;-72
2022/03/10 10:37:02;;;;;;;16.90;12.05;;;11.50;64.70;;;;;;5050346;28;20053;-72
2022/03/10 10:39:27;;;;;;;17.92;11.65;;;11.50;65.40;;;;;;5053829;28;20045;-72
2022/03/10 10:41:53;;;;;;;17.08;11.27;;;11.50;64.40;;;;;;5052950;28;20497;-73
2022/03/10 10:44:20;;;;;;;16.65;11.45;;;11.50;66.00;;;;;;5050050;28;20037;-73
2022/03/10 10:46:55;;;;;;;15.50;11.25;;;11.60;65.70;;;;;;5049163;28;20362;-73
2022/03/10 10:49:22;;;;;;;16.35;11.25;;;11.70;64.60;;;;;;5046008;28;20037;-73
2022/03/10 10:51:55;;;;;;;16.42;11.02;;;11.80;63.50;;;;;;5035815;28;20413;-72
2022/03/10 10:54:23;;;;;;;17.23;12.02;;;11.90;63.70;;;;;;5051216;28;20063;-73
2022/03/10 10:56:55;;;;;;;16.00;11.00;;;11.90;64.30;;;;;;5048611;28;20045;-73
2022/03/10 10:59:34;;;;;;;18.80;12.32;;;11.90;64.60;;;;;;5033112;28;20038;-73
2022/03/10 11:02:20;;;;;;;18.98;11.35;;;12.00;62.50;;;;;;5033212;28;20045;-72
2022/03/10 11:04:50;;;;;;;18.42;12.43;;;12.20;60.90;;;;;;5048575;28;20045;-73
2022/03/10 11:07:17;;;;;;;16.80;11.32;;;12.20;60.80;;;;;;5050269;28;20509;-72
2022/03/10 11:09:46;;;;;;;20.05;12.93;;;12.20;61.30;;;;;;5035261;28;20079;-73
2022/03/10 11:12:13;;;;;;;18.83;12.07;;;12.30;60.50;;;;;;5036068;28;20068;-73
2022/03/10 11:14:41;;;;;;;18.30;12.10;;;12.40;59.40;;;;;;5044437;28;20041;-72
2022/03/10 11:17:07;;;;;;;17.63;11.55;;;12.30;61.00;;;;;;5036392;28;20029;-72
2022/03/10 11:19:41;;;;;;;18.42;13.00;;;12.30;62.60;;;;;;5035328;28;20500;-72
2022/03/10 11:22:26;;;;;;;18.88;12.30;;;12.40;62.20;;;;;;5052476;28;20049;-72
2022/03/10 11:25:16;;;;;;;19.20;11.50;;;12.50;61.00;;;;;;5051358;28;20033;-72
2022/03/10 11:27:44;;;;;;;18.20;12.43;;;12.60;58.30;;;;;;5035051;28;20111;-72
2022/03/10 11:30:11;;;;;;;18.08;11.73;;;12.70;57.10;;;;;;5027072;28;20077;-72
2022/03/10 11:32:36;;;;;;;18.67;11.77;;;12.70;56.00;;;;;;5029598;28;20430;-73
2022/03/10 11:35:02;;;;;;;20.23;11.77;;;12.70;57.00;;;;;;4992821;28;20037;-72
2022/03/10 11:37:40;;;;;;;17.48;11.27;;;12.70;55.90;;;;;;5012393;28;20449;-74
2022/03/10 11:40:12;;;;;;;17.80;12.18;;;12.70;55.90;;;;;;4995527;28;20046;-74
2022/03/10 11:42:38;;;;;;;19.02;12.40;;;12.80;55.90;;;;;;5012749;28;20042;-74
2022/03/10 11:45:28;;;;;;;19.38;12.73;;;12.80;57.10;;;;;;5009869;28;20034;-73
2022/03/10 11:47:53;;;;;;;17.77;11.48;;;12.90;57.60;;;;;;5011460;28;20034;-72
2022/03/10 11:50:22;;;;;;;18.27;12.75;;;12.90;57.30;;;;;;4993722;28;20051;-72
2022/03/10 11:53:04;;;;;;;18.92;12.25;;;13.00;55.50;;;;;;5011383;28;20038;-72
2022/03/10 11:55:43;;;;;;;15.13;10.02;;;13.00;54.30;;;;;;5000682;28;20061;-72
2022/03/10 11:58:10;;;;;;;18.60;12.30;;;13.00;53.60;;;;;;4998280;28;20033;-72
2022/03/10 12:00:46;;;;;;;18.27;11.43;;;13.10;50.90;;;;;;4995781;28;20045;-72
2022/03/10 12:03:24;;;;;;;18.05;11.40;;;13.00;50.20;;;;;;5011422;28;20057;-72
2022/03/10 12:05:59;;;;;;;20.58;12.98;;;13.10;52.60;;;;;;5009120;28;20502;-73
2022/03/10 12:08:32;;;;;;;19.60;12.52;;;13.00;50.90;;;;;;5010896;28;20045;-73
2022/03/10 12:11:00;;;;;;;18.42;11.60;;;13.00;51.80;;;;;;4995372;28;20042;-73
2022/03/10 12:13:27;;;;;;;17.42;11.48;;;13.00;51.50;;;;;;4988206;28;20041;-73
2022/03/10 12:15:53;;;;;;;17.38;10.50;;;13.10;50.10;;;;;;4995656;28;20052;-72
2022/03/10 12:18:23;;;;;;;18.63;13.25;;;13.30;48.70;;;;;;4996069;28;20501;-73
2022/03/10 12:20:53;;;;;;;17.25;11.48;;;13.20;50.50;;;;;;5011883;28;20054;-73
2022/03/10 12:23:22;;;;;;;18.30;12.13;;;13.20;51.60;;;;;;4995410;28;20121;-72
2022/03/10 12:26:23;;;;;;;18.75;12.70;;;13.20;50.50;;;;;;5025756;28;20494;-73
2022/03/10 12:28:50;;;;;;;18.58;11.65;;;13.10;51.00;;;;;;5027194;28;20057;-73
2022/03/10 12:31:19;;;;;;;18.48;11.73;;;13.10;50.90;;;;;;5010957;28;20041;-72
2022/03/10 12:33:50;;;;;;;20.05;12.05;;;13.20;50.70;;;;;;4994399;28;20041;-73
2022/03/10 12:36:36;;;;;;;18.67;11.93;;;13.20;50.60;;;;;;5011285;28;20049;-73
2022/03/10 12:39:13;;;;;;;18.85;11.63;;;13.30;48.30;;;;;;4992483;28;20046;-73
2022/03/10 12:41:50;;;;;;;20.50;12.00;;;13.30;50.60;;;;;;4991826;28;20084;-73